sensor_id;sensor_type;location;lat;lon;timestamp;temperature;humidity
5924;DHT22;2987;50.884;14.818;2022-10-16T00:02:10;14.90;99.90
5924;DHT22;2987;50.884;14.818;2022-10-16T00:04:36;14.90;99.90
5924;DHT22;2987;50.884;14.818;2022-10-16T00:07:02;14.90;99.90
5924;DHT22;2987;50.884;14.818;2022-10-16T00:09:28;14.90;99.90
5924;DHT22;2987;50.884;14.818;2022-10-16T00:11:54;14.90;99.90
5924;DHT22;2987;50.884;14.818;2022-10-16T00:14:21;14.90;99.90
5924;DHT22;2987;50.884;14.818;2022-10-16T00:16:47;14.90;99.90
5924;DHT22;2987;50.884;14.818;2022-10-16T00:19:13;14.90;99.90
5924;DHT22;2987;50.884;14.818;2022-10-16T00:21:39;14.90;99.90
5924;DHT22;2987;50.884;14.818;2022-10-16T00:24:25;15.00;99.90
5924;DHT22;2987;50.884;14.818;2022-10-16T00:26:51;15.10;99.90
5924;DHT22;2987;50.884;14.818;2022-10-16T00:29:17;15.10;99.90
5924;DHT22;2987;50.884;14.818;2022-10-16T00:31:44;15.20;99.90
5924;DHT22;2987;50.884;14.818;2022-10-16T00:34:10;15.20;99.90
5924;DHT22;2987;50.884;14.818;2022-10-16T00:36:36;15.30;99.90
5924;DHT22;2987;50.884;14.818;2022-10-16T00:39:05;15.30;99.90
5924;DHT22;2987;50.884;14.818;2022-10-16T00:41:32;15.30;99.90
5924;DHT22;2987;50.884;14.818;2022-10-16T00:44:02;15.30;99.90
5924;DHT22;2987;50.884;14.818;2022-10-16T00:46:38;15.30;99.90
5924;DHT22;2987;50.884;14.818;2022-10-16T00:49:14;15.30;99.90
5924;DHT22;2987;50.884;14.818;2022-10-16T00:51:47;15.20;99.90
5924;DHT22;2987;50.884;14.818;2022-10-16T00:54:26;15.20;99.90
5924;DHT22;2987;50.884;14.818;2022-10-16T00:56:55;15.20;99.90
5924;DHT22;2987;50.884;14.818;2022-10-16T00:59:29;15.10;99.90
5924;DHT22;2987;50.884;14.818;2022-10-16T01:01:56;15.20;99.90
5924;DHT22;2987;50.884;14.818;2022-10-16T01:04:24;15.10;99.90
5924;DHT22;2987;50.884;14.818;2022-10-16T01:10:14;15.00;99.90
5924;DHT22;2987;50.884;14.818;2022-10-16T01:15:59;14.90;99.90
5924;DHT22;2987;50.884;14.818;2022-10-16T01:18:37;14.90;99.90
5924;DHT22;2987;50.884;14.818;2022-10-16T01:21:10;14.90;99.90
5924;DHT22;2987;50.884;14.818;2022-10-16T01:35:07;15.00;99.90
5924;DHT22;2987;50.884;14.818;2022-10-16T01:37:38;15.10;99.90
5924;DHT22;2987;50.884;14.818;2022-10-16T01:40:10;15.10;99.90
5924;DHT22;2987;50.884;14.818;2022-10-16T01:42:56;15.10;99.90
5924;DHT22;2987;50.884;14.818;2022-10-16T01:45:25;15.10;99.90
5924;DHT22;2987;50.884;14.818;2022-10-16T01:47:55;15.10;99.90
5924;DHT22;2987;50.884;14.818;2022-10-16T01:50:21;15.00;99.90
5924;DHT22;2987;50.884;14.818;2022-10-16T01:52:50;15.00;99.90
5924;DHT22;2987;50.884;14.818;2022-10-16T01:55:24;15.00;99.90
5924;DHT22;2987;50.884;14.818;2022-10-16T01:57:53;15.00;99.90
5924;DHT22;2987;50.884;14.818;2022-10-16T02:00:21;14.90;99.90
5924;DHT22;2987;50.884;14.818;2022-10-16T02:02:51;14.90;99.90
5924;DHT22;2987;50.884;14.818;2022-10-16T02:05:26;14.80;99.90
5924;DHT22;2987;50.884;14.818;2022-10-16T02:07:55;14.80;99.90
5924;DHT22;2987;50.884;14.818;2022-10-16T02:10:21;14.80;99.90
5924;DHT22;2987;50.884;14.818;2022-10-16T02:12:56;14.80;99.90
5924;DHT22;2987;50.884;14.818;2022-10-16T02:15:23;14.90;99.90
5924;DHT22;2987;50.884;14.818;2022-10-16T02:17:50;14.90;99.90
5924;DHT22;2987;50.884;14.818;2022-10-16T02:20:16;14.80;99.90
5924;DHT22;2987;50.884;14.818;2022-10-16T02:22:46;14.80;99.90
5924;DHT22;2987;50.884;14.818;2022-10-16T02:25:30;14.80;99.90
5924;DHT22;2987;50.884;14.818;2022-10-16T02:28:17;14.90;99.90
5924;DHT22;2987;50.884;14.818;2022-10-16T02:33:18;14.80;99.90
5924;DHT22;2987;50.884;14.818;2022-10-16T02:35:47;14.90;99.90
5924;DHT22;2987;50.884;14.818;2022-10-16T02:38:16;14.90;99.90
5924;DHT22;2987;50.884;14.818;2022-10-16T02:40:44;14.90;99.90
5924;DHT22;2987;50.884;14.818;2022-10-16T02:43:11;14.90;99.90
5924;DHT22;2987;50.884;14.818;2022-10-16T02:45:44;14.90;99.90
5924;DHT22;2987;50.884;14.818;2022-10-16T02:48:11;14.90;99.90
5924;DHT22;2987;50.884;14.818;2022-10-16T02:50:37;14.90;99.90
5924;DHT22;2987;50.884;14.818;2022-10-16T02:53:03;14.90;99.90
5924;DHT22;2987;50.884;14.818;2022-10-16T02:55:29;14.90;99.90
5924;DHT22;2987;50.884;14.818;2022-10-16T02:57:55;15.00;99.90
5924;DHT22;2987;50.884;14.818;2022-10-16T03:00:21;15.00;99.90
5924;DHT22;2987;50.884;14.818;2022-10-16T03:02:47;14.90;99.90
5924;DHT22;2987;50.884;14.818;2022-10-16T03:05:17;14.90;99.90
5924;DHT22;2987;50.884;14.818;2022-10-16T03:07:43;14.90;99.90
5924;DHT22;2987;50.884;14.818;2022-10-16T03:10:09;14.90;99.90
5924;DHT22;2987;50.884;14.818;2022-10-16T03:12:35;14.90;99.90
5924;DHT22;2987;50.884;14.818;2022-10-16T03:15:02;14.90;99.90
5924;DHT22;2987;50.884;14.818;2022-10-16T03:17:29;14.90;99.90
5924;DHT22;2987;50.884;14.818;2022-10-16T03:19:56;14.90;99.90
5924;DHT22;2987;50.884;14.818;2022-10-16T03:22:22;14.90;99.90
5924;DHT22;2987;50.884;14.818;2022-10-16T03:24:48;14.90;99.90
5924;DHT22;2987;50.884;14.818;2022-10-16T03:27:14;14.90;99.90
5924;DHT22;2987;50.884;14.818;2022-10-16T03:29:40;14.90;99.90
5924;DHT22;2987;50.884;14.818;2022-10-16T03:32:06;14.90;99.90
5924;DHT22;2987;50.884;14.818;2022-10-16T03:34:32;14.90;99.90
5924;DHT22;2987;50.884;14.818;2022-10-16T03:36:59;14.90;99.90
5924;DHT22;2987;50.884;14.818;2022-10-16T03:39:25;15.00;99.90
5924;DHT22;2987;50.884;14.818;2022-10-16T03:41:51;15.00;99.90
5924;DHT22;2987;50.884;14.818;2022-10-16T03:44:17;15.00;99.90
5924;DHT22;2987;50.884;14.818;2022-10-16T03:46:43;15.00;99.90
5924;DHT22;2987;50.884;14.818;2022-10-16T03:49:09;15.00;99.90
5924;DHT22;2987;50.884;14.818;2022-10-16T03:51:36;15.00;99.90
5924;DHT22;2987;50.884;14.818;2022-10-16T03:54:03;15.00;99.90
5924;DHT22;2987;50.884;14.818;2022-10-16T03:56:29;15.00;99.90
5924;DHT22;2987;50.884;14.818;2022-10-16T03:58:55;14.90;99.90
5924;DHT22;2987;50.884;14.818;2022-10-16T04:01:21;15.00;99.90
5924;DHT22;2987;50.884;14.818;2022-10-16T04:03:47;15.00;99.90
5924;DHT22;2987;50.884;14.818;2022-10-16T04:06:14;15.00;99.90
5924;DHT22;2987;50.884;14.818;2022-10-16T04:08:43;15.10;99.90
5924;DHT22;2987;50.884;14.818;2022-10-16T04:11:09;15.00;99.90
5924;DHT22;2987;50.884;14.818;2022-10-16T04:13:35;15.00;99.90
5924;DHT22;2987;50.884;14.818;2022-10-16T04:16:02;15.00;99.90
5924;DHT22;2987;50.884;14.818;2022-10-16T04:18:28;15.00;99.90
5924;DHT22;2987;50.884;14.818;2022-10-16T04:20:54;15.00;99.90
5924;DHT22;2987;50.884;14.818;2022-10-16T04:23:21;15.00;99.90
5924;DHT22;2987;50.884;14.818;2022-10-16T04:25:49;15.00;99.90
5924;DHT22;2987;50.884;14.818;2022-10-16T04:28:15;15.00;99.90
5924;DHT22;2987;50.884;14.818;2022-10-16T04:30:41;15.00;99.90
5924;DHT22;2987;50.884;14.818;2022-10-16T04:33:09;15.10;99.90
5924;DHT22;2987;50.884;14.818;2022-10-16T04:35:35;15.10;99.90
5924;DHT22;2987;50.884;14.818;2022-10-16T04:38:02;15.10;99.90
5924;DHT22;2987;50.884;14.818;2022-10-16T04:40:28;15.10;99.90
5924;DHT22;2987;50.884;14.818;2022-10-16T04:42:54;15.10;99.90
5924;DHT22;2987;50.884;14.818;2022-10-16T04:45:20;15.10;99.90
5924;DHT22;2987;50.884;14.818;2022-10-16T04:47:46;15.10;99.90
5924;DHT22;2987;50.884;14.818;2022-10-16T04:50:12;15.10;99.90
5924;DHT22;2987;50.884;14.818;2022-10-16T04:52:39;15.10;99.90
5924;DHT22;2987;50.884;14.818;2022-10-16T04:55:05;15.00;99.90
5924;DHT22;2987;50.884;14.818;2022-10-16T04:57:31;15.00;99.90
5924;DHT22;2987;50.884;14.818;2022-10-16T04:59:59;15.00;99.90
5924;DHT22;2987;50.884;14.818;2022-10-16T05:02:26;15.00;99.90
5924;DHT22;2987;50.884;14.818;2022-10-16T05:04:52;15.10;99.90
5924;DHT22;2987;50.884;14.818;2022-10-16T05:07:18;15.10;99.90
5924;DHT22;2987;50.884;14.818;2022-10-16T05:09:45;15.10;99.90
5924;DHT22;2987;50.884;14.818;2022-10-16T05:12:11;15.10;99.90
5924;DHT22;2987;50.884;14.818;2022-10-16T05:14:37;15.00;99.90
5924;DHT22;2987;50.884;14.818;2022-10-16T05:17:03;15.00;99.90
5924;DHT22;2987;50.884;14.818;2022-10-16T05:19:29;15.00;99.90
5924;DHT22;2987;50.884;14.818;2022-10-16T05:21:55;15.00;99.90
5924;DHT22;2987;50.884;14.818;2022-10-16T05:24:22;15.10;99.90
5924;DHT22;2987;50.884;14.818;2022-10-16T05:26:48;15.00;99.90
5924;DHT22;2987;50.884;14.818;2022-10-16T05:29:14;15.00;99.90
5924;DHT22;2987;50.884;14.818;2022-10-16T05:31:40;15.00;99.90
5924;DHT22;2987;50.884;14.818;2022-10-16T05:34:06;14.90;99.90
5924;DHT22;2987;50.884;14.818;2022-10-16T05:36:33;14.90;99.90
5924;DHT22;2987;50.884;14.818;2022-10-16T05:38:59;14.90;99.90
5924;DHT22;2987;50.884;14.818;2022-10-16T05:41:25;14.80;99.90
5924;DHT22;2987;50.884;14.818;2022-10-16T05:43:52;14.90;99.90
5924;DHT22;2987;50.884;14.818;2022-10-16T05:46:19;14.90;99.90
5924;DHT22;2987;50.884;14.818;2022-10-16T05:48:45;14.90;99.90
5924;DHT22;2987;50.884;14.818;2022-10-16T05:51:14;14.90;99.90
5924;DHT22;2987;50.884;14.818;2022-10-16T05:53:40;14.90;99.90
5924;DHT22;2987;50.884;14.818;2022-10-16T05:56:09;14.90;99.90
5924;DHT22;2987;50.884;14.818;2022-10-16T05:58:37;14.90;99.90
5924;DHT22;2987;50.884;14.818;2022-10-16T06:01:09;14.90;99.90
5924;DHT22;2987;50.884;14.818;2022-10-16T06:03:35;14.80;99.90
5924;DHT22;2987;50.884;14.818;2022-10-16T06:06:11;14.80;99.90
5924;DHT22;2987;50.884;14.818;2022-10-16T06:08:39;14.80;99.90
5924;DHT22;2987;50.884;14.818;2022-10-16T06:11:08;14.90;99.90
5924;DHT22;2987;50.884;14.818;2022-10-16T06:13:35;14.80;99.90
5924;DHT22;2987;50.884;14.818;2022-10-16T06:16:03;14.90;99.90
5924;DHT22;2987;50.884;14.818;2022-10-16T06:18:29;14.90;99.90
5924;DHT22;2987;50.884;14.818;2022-10-16T06:20:56;15.00;99.90
5924;DHT22;2987;50.884;14.818;2022-10-16T06:23:23;15.00;99.90
5924;DHT22;2987;50.884;14.818;2022-10-16T06:25:49;15.00;99.90
5924;DHT22;2987;50.884;14.818;2022-10-16T06:28:15;15.10;99.90
5924;DHT22;2987;50.884;14.818;2022-10-16T06:30:42;15.10;99.90
5924;DHT22;2987;50.884;14.818;2022-10-16T06:33:11;15.10;99.90
5924;DHT22;2987;50.884;14.818;2022-10-16T06:35:37;15.10;99.90
5924;DHT22;2987;50.884;14.818;2022-10-16T06:38:03;15.20;99.90
5924;DHT22;2987;50.884;14.818;2022-10-16T06:40:29;15.20;99.90
5924;DHT22;2987;50.884;14.818;2022-10-16T06:42:55;15.30;99.90
5924;DHT22;2987;50.884;14.818;2022-10-16T06:45:22;15.30;99.90
5924;DHT22;2987;50.884;14.818;2022-10-16T06:47:48;15.30;99.90
5924;DHT22;2987;50.884;14.818;2022-10-16T06:50:14;15.40;99.90
5924;DHT22;2987;50.884;14.818;2022-10-16T06:52:40;15.40;99.90
5924;DHT22;2987;50.884;14.818;2022-10-16T06:55:07;15.50;99.90
5924;DHT22;2987;50.884;14.818;2022-10-16T06:57:33;15.50;99.90
5924;DHT22;2987;50.884;14.818;2022-10-16T06:59:59;15.50;99.90
5924;DHT22;2987;50.884;14.818;2022-10-16T07:02:25;15.50;99.90
5924;DHT22;2987;50.884;14.818;2022-10-16T07:04:54;15.50;99.90
5924;DHT22;2987;50.884;14.818;2022-10-16T07:07:22;15.50;99.90
5924;DHT22;2987;50.884;14.818;2022-10-16T07:09:50;15.50;99.90
5924;DHT22;2987;50.884;14.818;2022-10-16T07:12:16;15.60;99.90
5924;DHT22;2987;50.884;14.818;2022-10-16T07:14:43;15.60;99.90
5924;DHT22;2987;50.884;14.818;2022-10-16T07:17:09;15.60;99.90
5924;DHT22;2987;50.884;14.818;2022-10-16T07:19:35;15.70;99.90
5924;DHT22;2987;50.884;14.818;2022-10-16T07:22:01;15.70;99.90
5924;DHT22;2987;50.884;14.818;2022-10-16T07:24:29;15.80;99.90
5924;DHT22;2987;50.884;14.818;2022-10-16T07:26:55;15.90;99.90
5924;DHT22;2987;50.884;14.818;2022-10-16T07:29:21;15.90;99.90
5924;DHT22;2987;50.884;14.818;2022-10-16T07:31:48;16.00;99.90
5924;DHT22;2987;50.884;14.818;2022-10-16T07:34:16;16.10;99.90
5924;DHT22;2987;50.884;14.818;2022-10-16T07:36:43;16.10;99.90
5924;DHT22;2987;50.884;14.818;2022-10-16T07:39:09;16.20;99.90
5924;DHT22;2987;50.884;14.818;2022-10-16T07:41:35;16.20;99.90
5924;DHT22;2987;50.884;14.818;2022-10-16T07:44:03;16.30;99.90
5924;DHT22;2987;50.884;14.818;2022-10-16T07:46:30;16.30;99.90
5924;DHT22;2987;50.884;14.818;2022-10-16T07:48:57;16.30;99.90
5924;DHT22;2987;50.884;14.818;2022-10-16T07:51:25;16.40;99.90
5924;DHT22;2987;50.884;14.818;2022-10-16T07:53:52;16.40;99.90
5924;DHT22;2987;50.884;14.818;2022-10-16T07:56:20;16.50;99.90
5924;DHT22;2987;50.884;14.818;2022-10-16T07:58:46;16.60;99.90
5924;DHT22;2987;50.884;14.818;2022-10-16T08:01:16;16.60;99.90
5924;DHT22;2987;50.884;14.818;2022-10-16T08:03:44;16.70;99.90
5924;DHT22;2987;50.884;14.818;2022-10-16T08:06:11;16.70;99.90
5924;DHT22;2987;50.884;14.818;2022-10-16T08:08:37;16.70;99.90
5924;DHT22;2987;50.884;14.818;2022-10-16T08:11:03;16.80;99.90
5924;DHT22;2987;50.884;14.818;2022-10-16T08:13:30;16.90;99.90
5924;DHT22;2987;50.884;14.818;2022-10-16T08:15:57;16.90;99.90
5924;DHT22;2987;50.884;14.818;2022-10-16T08:18:23;17.00;99.90
5924;DHT22;2987;50.884;14.818;2022-10-16T08:20:58;17.00;99.90
5924;DHT22;2987;50.884;14.818;2022-10-16T08:23:27;16.90;99.90
5924;DHT22;2987;50.884;14.818;2022-10-16T08:25:54;17.00;99.90
5924;DHT22;2987;50.884;14.818;2022-10-16T08:28:21;17.00;99.90
5924;DHT22;2987;50.884;14.818;2022-10-16T08:30:48;17.00;99.90
5924;DHT22;2987;50.884;14.818;2022-10-16T08:33:14;17.00;99.90
5924;DHT22;2987;50.884;14.818;2022-10-16T08:35:40;17.00;99.90
5924;DHT22;2987;50.884;14.818;2022-10-16T08:38:10;17.00;99.90
5924;DHT22;2987;50.884;14.818;2022-10-16T08:40:37;17.10;99.90
5924;DHT22;2987;50.884;14.818;2022-10-16T08:43:43;17.10;99.90
5924;DHT22;2987;50.884;14.818;2022-10-16T08:49:02;17.10;99.90
5924;DHT22;2987;50.884;14.818;2022-10-16T08:53:57;17.10;99.90
5924;DHT22;2987;50.884;14.818;2022-10-16T08:56:25;17.00;99.90
5924;DHT22;2987;50.884;14.818;2022-10-16T08:58:53;17.10;99.90
5924;DHT22;2987;50.884;14.818;2022-10-16T09:01:21;17.10;99.90
5924;DHT22;2987;50.884;14.818;2022-10-16T09:04:22;17.10;99.90
5924;DHT22;2987;50.884;14.818;2022-10-16T09:06:54;17.10;99.90
5924;DHT22;2987;50.884;14.818;2022-10-16T09:12:37;17.20;99.90
5924;DHT22;2987;50.884;14.818;2022-10-16T09:15:35;17.30;99.90
5924;DHT22;2987;50.884;14.818;2022-10-16T09:20:37;17.50;99.90
5924;DHT22;2987;50.884;14.818;2022-10-16T09:25:47;17.70;99.90
5924;DHT22;2987;50.884;14.818;2022-10-16T09:28:14;17.80;99.90
5924;DHT22;2987;50.884;14.818;2022-10-16T09:30:41;17.90;99.90
5924;DHT22;2987;50.884;14.818;2022-10-16T09:33:08;17.90;99.90
5924;DHT22;2987;50.884;14.818;2022-10-16T09:35:40;18.00;99.90
5924;DHT22;2987;50.884;14.818;2022-10-16T09:38:07;18.10;99.90
5924;DHT22;2987;50.884;14.818;2022-10-16T09:40:37;18.20;99.90
5924;DHT22;2987;50.884;14.818;2022-10-16T09:43:21;18.20;99.90
5924;DHT22;2987;50.884;14.818;2022-10-16T09:46:06;18.30;99.90
5924;DHT22;2987;50.884;14.818;2022-10-16T09:48:38;18.20;99.90
5924;DHT22;2987;50.884;14.818;2022-10-16T09:51:18;18.30;99.90
5924;DHT22;2987;50.884;14.818;2022-10-16T09:53:47;18.40;99.90
5924;DHT22;2987;50.884;14.818;2022-10-16T09:56:27;18.50;99.90
5924;DHT22;2987;50.884;14.818;2022-10-16T09:58:56;18.60;99.90
5924;DHT22;2987;50.884;14.818;2022-10-16T10:01:31;18.70;99.90
5924;DHT22;2987;50.884;14.818;2022-10-16T10:04:01;18.80;99.90
5924;DHT22;2987;50.884;14.818;2022-10-16T10:06:33;18.90;99.90
5924;DHT22;2987;50.884;14.818;2022-10-16T10:09:06;19.00;99.90
5924;DHT22;2987;50.884;14.818;2022-10-16T10:11:54;19.40;99.90
5924;DHT22;2987;50.884;14.818;2022-10-16T10:16:51;19.40;99.90
5924;DHT22;2987;50.884;14.818;2022-10-16T10:19:21;19.60;99.90
5924;DHT22;2987;50.884;14.818;2022-10-16T10:21:48;19.80;99.90
5924;DHT22;2987;50.884;14.818;2022-10-16T10:24:16;19.90;99.90
5924;DHT22;2987;50.884;14.818;2022-10-16T10:27:05;19.90;99.90
5924;DHT22;2987;50.884;14.818;2022-10-16T10:40:32;19.60;99.90
5924;DHT22;2987;50.884;14.818;2022-10-16T10:48:56;19.90;99.90
5924;DHT22;2987;50.884;14.818;2022-10-16T10:54:10;20.30;99.90
5924;DHT22;2987;50.884;14.818;2022-10-16T10:59:51;20.40;99.90
5924;DHT22;2987;50.884;14.818;2022-10-16T11:02:26;20.40;99.90
5924;DHT22;2987;50.884;14.818;2022-10-16T11:05:21;20.40;99.90
5924;DHT22;2987;50.884;14.818;2022-10-16T11:07:53;20.30;99.90
5924;DHT22;2987;50.884;14.818;2022-10-16T11:10:26;20.30;99.90
5924;DHT22;2987;50.884;14.818;2022-10-16T11:15:40;20.70;99.90
5924;DHT22;2987;50.884;14.818;2022-10-16T11:18:18;20.80;99.90
5924;DHT22;2987;50.884;14.818;2022-10-16T11:23:14;20.40;99.90
5924;DHT22;2987;50.884;14.818;2022-10-16T11:25:43;20.30;99.90
5924;DHT22;2987;50.884;14.818;2022-10-16T11:28:16;20.20;99.90
5924;DHT22;2987;50.884;14.818;2022-10-16T11:30:55;20.00;99.90
5924;DHT22;2987;50.884;14.818;2022-10-16T11:33:32;19.90;99.90
5924;DHT22;2987;50.884;14.818;2022-10-16T11:36:14;19.90;99.90
5924;DHT22;2987;50.884;14.818;2022-10-16T11:38:53;20.00;99.90
5924;DHT22;2987;50.884;14.818;2022-10-16T11:41:27;20.10;99.90
5924;DHT22;2987;50.884;14.818;2022-10-16T11:44:31;20.20;99.90
5924;DHT22;2987;50.884;14.818;2022-10-16T11:47:27;20.20;99.90
5924;DHT22;2987;50.884;14.818;2022-10-16T11:50:03;20.20;99.90
5924;DHT22;2987;50.884;14.818;2022-10-16T11:52:53;20.30;99.90
5924;DHT22;2987;50.884;14.818;2022-10-16T12:08:44;21.10;99.90
5924;DHT22;2987;50.884;14.818;2022-10-16T12:11:34;21.20;99.90
5924;DHT22;2987;50.884;14.818;2022-10-16T12:14:07;21.20;99.90
5924;DHT22;2987;50.884;14.818;2022-10-16T12:17:02;21.30;99.90
5924;DHT22;2987;50.884;14.818;2022-10-16T12:19:30;21.50;99.90
5924;DHT22;2987;50.884;14.818;2022-10-16T12:21:59;21.50;99.90
5924;DHT22;2987;50.884;14.818;2022-10-16T12:24:39;21.60;99.90
5924;DHT22;2987;50.884;14.818;2022-10-16T12:32:37;21.70;99.90
5924;DHT22;2987;50.884;14.818;2022-10-16T12:35:23;21.70;99.90
5924;DHT22;2987;50.884;14.818;2022-10-16T12:37:51;21.70;99.90
5924;DHT22;2987;50.884;14.818;2022-10-16T12:40:35;21.80;99.90
5924;DHT22;2987;50.884;14.818;2022-10-16T12:43:25;21.80;99.90
5924;DHT22;2987;50.884;14.818;2022-10-16T12:48:30;21.90;99.90
5924;DHT22;2987;50.884;14.818;2022-10-16T12:50:57;21.80;99.90
5924;DHT22;2987;50.884;14.818;2022-10-16T12:53:24;21.70;99.90
5924;DHT22;2987;50.884;14.818;2022-10-16T12:56:15;21.80;99.90
5924;DHT22;2987;50.884;14.818;2022-10-16T13:04:37;21.70;99.90
5924;DHT22;2987;50.884;14.818;2022-10-16T13:07:34;21.70;99.90
5924;DHT22;2987;50.884;14.818;2022-10-16T13:12:55;21.80;99.90
5924;DHT22;2987;50.884;14.818;2022-10-16T13:15:51;21.80;99.90
5924;DHT22;2987;50.884;14.818;2022-10-16T13:18:37;21.90;99.90
5924;DHT22;2987;50.884;14.818;2022-10-16T13:21:19;21.90;99.90
5924;DHT22;2987;50.884;14.818;2022-10-16T13:24:02;21.80;99.90
5924;DHT22;2987;50.884;14.818;2022-10-16T13:29:16;21.70;99.90
5924;DHT22;2987;50.884;14.818;2022-10-16T13:31:43;21.60;99.90
5924;DHT22;2987;50.884;14.818;2022-10-16T13:36:44;21.60;99.90
5924;DHT22;2987;50.884;14.818;2022-10-16T13:39:20;21.60;99.90
5924;DHT22;2987;50.884;14.818;2022-10-16T13:42:06;21.40;99.90
5924;DHT22;2987;50.884;14.818;2022-10-16T13:44:45;21.50;99.90
5924;DHT22;2987;50.884;14.818;2022-10-16T13:47:23;21.40;99.90
5924;DHT22;2987;50.884;14.818;2022-10-16T13:50:11;21.30;99.90
5924;DHT22;2987;50.884;14.818;2022-10-16T13:52:38;21.20;99.90
5924;DHT22;2987;50.884;14.818;2022-10-16T13:55:11;21.20;99.90
5924;DHT22;2987;50.884;14.818;2022-10-16T13:57:38;21.20;99.90
5924;DHT22;2987;50.884;14.818;2022-10-16T14:00:22;21.30;99.90
5924;DHT22;2987;50.884;14.818;2022-10-16T14:02:58;21.30;99.90
5924;DHT22;2987;50.884;14.818;2022-10-16T14:05:27;21.40;99.90
5924;DHT22;2987;50.884;14.818;2022-10-16T14:07:54;21.30;99.90
5924;DHT22;2987;50.884;14.818;2022-10-16T14:10:29;21.40;99.90
5924;DHT22;2987;50.884;14.818;2022-10-16T14:13:06;21.40;99.90
5924;DHT22;2987;50.884;14.818;2022-10-16T14:15:34;21.60;99.90
5924;DHT22;2987;50.884;14.818;2022-10-16T14:18:02;21.50;99.90
5924;DHT22;2987;50.884;14.818;2022-10-16T14:20:31;21.50;99.90
5924;DHT22;2987;50.884;14.818;2022-10-16T14:23:16;21.40;99.90
5924;DHT22;2987;50.884;14.818;2022-10-16T14:25:45;21.40;99.90
5924;DHT22;2987;50.884;14.818;2022-10-16T14:28:19;21.20;99.90
5924;DHT22;2987;50.884;14.818;2022-10-16T14:31:16;21.20;99.90
5924;DHT22;2987;50.884;14.818;2022-10-16T14:33:49;21.10;99.90
5924;DHT22;2987;50.884;14.818;2022-10-16T14:36:16;20.90;99.90
5924;DHT22;2987;50.884;14.818;2022-10-16T14:39:05;20.80;99.90
5924;DHT22;2987;50.884;14.818;2022-10-16T14:44:01;20.50;99.90
5924;DHT22;2987;50.884;14.818;2022-10-16T14:46:32;20.40;99.90
5924;DHT22;2987;50.884;14.818;2022-10-16T14:49:03;20.20;99.90
5924;DHT22;2987;50.884;14.818;2022-10-16T14:51:30;20.10;99.90
5924;DHT22;2987;50.884;14.818;2022-10-16T14:53:56;20.00;99.90
5924;DHT22;2987;50.884;14.818;2022-10-16T14:56:25;19.90;99.90
5924;DHT22;2987;50.884;14.818;2022-10-16T14:58:53;19.70;99.90
5924;DHT22;2987;50.884;14.818;2022-10-16T15:01:21;19.70;99.90
5924;DHT22;2987;50.884;14.818;2022-10-16T15:03:47;19.50;99.90
5924;DHT22;2987;50.884;14.818;2022-10-16T15:06:15;19.40;99.90
5924;DHT22;2987;50.884;14.818;2022-10-16T15:08:42;19.40;99.90
5924;DHT22;2987;50.884;14.818;2022-10-16T15:11:13;19.30;99.90
5924;DHT22;2987;50.884;14.818;2022-10-16T15:13:41;19.10;99.90
5924;DHT22;2987;50.884;14.818;2022-10-16T15:16:11;19.00;99.90
5924;DHT22;2987;50.884;14.818;2022-10-16T15:18:38;18.90;99.90
5924;DHT22;2987;50.884;14.818;2022-10-16T15:21:05;18.70;99.90
5924;DHT22;2987;50.884;14.818;2022-10-16T15:23:31;18.60;99.90
5924;DHT22;2987;50.884;14.818;2022-10-16T15:25:57;18.60;99.90
5924;DHT22;2987;50.884;14.818;2022-10-16T15:28:25;18.50;99.90
5924;DHT22;2987;50.884;14.818;2022-10-16T15:30:54;18.40;99.90
5924;DHT22;2987;50.884;14.818;2022-10-16T15:33:23;18.40;99.90
5924;DHT22;2987;50.884;14.818;2022-10-16T15:35:51;18.40;99.90
5924;DHT22;2987;50.884;14.818;2022-10-16T15:38:20;18.30;99.90
5924;DHT22;2987;50.884;14.818;2022-10-16T15:40:49;18.30;99.90
5924;DHT22;2987;50.884;14.818;2022-10-16T15:43:16;18.20;99.90
5924;DHT22;2987;50.884;14.818;2022-10-16T15:45:42;18.20;99.90
5924;DHT22;2987;50.884;14.818;2022-10-16T15:48:12;18.30;99.90
5924;DHT22;2987;50.884;14.818;2022-10-16T15:50:40;18.30;99.90
5924;DHT22;2987;50.884;14.818;2022-10-16T15:53:14;18.20;99.90
5924;DHT22;2987;50.884;14.818;2022-10-16T15:55:40;18.10;99.90
5924;DHT22;2987;50.884;14.818;2022-10-16T15:58:07;18.10;99.90
5924;DHT22;2987;50.884;14.818;2022-10-16T16:00:33;18.00;99.90
5924;DHT22;2987;50.884;14.818;2022-10-16T16:02:59;17.90;99.90
5924;DHT22;2987;50.884;14.818;2022-10-16T16:05:25;17.90;99.90
5924;DHT22;2987;50.884;14.818;2022-10-16T16:07:53;17.90;99.90
5924;DHT22;2987;50.884;14.818;2022-10-16T16:10:20;17.90;99.90
5924;DHT22;2987;50.884;14.818;2022-10-16T16:12:48;17.80;99.90
5924;DHT22;2987;50.884;14.818;2022-10-16T16:15:20;17.80;99.90
5924;DHT22;2987;50.884;14.818;2022-10-16T16:17:47;17.70;99.90
5924;DHT22;2987;50.884;14.818;2022-10-16T16:20:13;17.70;99.90
5924;DHT22;2987;50.884;14.818;2022-10-16T16:22:39;17.60;99.90
5924;DHT22;2987;50.884;14.818;2022-10-16T16:25:06;17.60;99.90
5924;DHT22;2987;50.884;14.818;2022-10-16T16:27:32;17.50;99.90
5924;DHT22;2987;50.884;14.818;2022-10-16T16:30:01;17.50;99.90
5924;DHT22;2987;50.884;14.818;2022-10-16T16:32:31;17.40;99.90
5924;DHT22;2987;50.884;14.818;2022-10-16T16:34:57;17.40;99.90
5924;DHT22;2987;50.884;14.818;2022-10-16T16:37:23;17.30;99.90
5924;DHT22;2987;50.884;14.818;2022-10-16T16:39:49;17.30;99.90
5924;DHT22;2987;50.884;14.818;2022-10-16T16:42:15;17.30;99.90
5924;DHT22;2987;50.884;14.818;2022-10-16T16:44:42;17.30;99.90
5924;DHT22;2987;50.884;14.818;2022-10-16T16:47:09;17.20;99.90
5924;DHT22;2987;50.884;14.818;2022-10-16T16:49:35;17.20;99.90
5924;DHT22;2987;50.884;14.818;2022-10-16T16:52:01;17.10;99.90
5924;DHT22;2987;50.884;14.818;2022-10-16T16:54:27;17.10;99.90
5924;DHT22;2987;50.884;14.818;2022-10-16T16:56:53;17.20;99.90
5924;DHT22;2987;50.884;14.818;2022-10-16T16:59:20;17.20;99.90
5924;DHT22;2987;50.884;14.818;2022-10-16T17:01:48;17.10;99.90
5924;DHT22;2987;50.884;14.818;2022-10-16T17:04:15;17.10;99.90
5924;DHT22;2987;50.884;14.818;2022-10-16T17:06:42;17.10;99.90
5924;DHT22;2987;50.884;14.818;2022-10-16T17:09:08;17.10;99.90
5924;DHT22;2987;50.884;14.818;2022-10-16T17:11:35;17.10;99.90
5924;DHT22;2987;50.884;14.818;2022-10-16T17:14:02;17.00;99.90
5924;DHT22;2987;50.884;14.818;2022-10-16T17:16:33;17.00;99.90
5924;DHT22;2987;50.884;14.818;2022-10-16T17:19:02;17.10;99.90
5924;DHT22;2987;50.884;14.818;2022-10-16T17:21:29;17.10;99.90
5924;DHT22;2987;50.884;14.818;2022-10-16T17:23:58;17.00;99.90
5924;DHT22;2987;50.884;14.818;2022-10-16T17:26:26;16.90;99.90
5924;DHT22;2987;50.884;14.818;2022-10-16T17:28:55;16.90;99.90
5924;DHT22;2987;50.884;14.818;2022-10-16T17:31:26;16.80;99.90
5924;DHT22;2987;50.884;14.818;2022-10-16T17:33:53;16.70;99.90
5924;DHT22;2987;50.884;14.818;2022-10-16T17:36:20;16.60;99.90
5924;DHT22;2987;50.884;14.818;2022-10-16T17:38:47;16.50;99.90
5924;DHT22;2987;50.884;14.818;2022-10-16T17:41:16;16.40;99.90
5924;DHT22;2987;50.884;14.818;2022-10-16T17:43:43;16.30;99.90
5924;DHT22;2987;50.884;14.818;2022-10-16T17:46:11;16.20;99.90